Terminal Aerodrome Forecast
Issued by NWS Louisville, KY

Home | Current Version | Previous Version | Text Only | Print | Product List | Glossary On
Versions: 1 2 3 4 5 6 7 8 9 10 11 12
146
FTUS43 KLMK 221720
TAFBWG
TAF
KBWG 221720Z 2218/2318 14010G18KT 3SM -SHRA BKN015 OVC030
      TEMPO 2218/2219 2SM SHRA
     FM222100 16011KT P6SM VCTS BKN015CB OVC025
     FM230000 17011KT P6SM SCT020 OVC035
     FM230600 19012KT P6SM VCSH SCT020 BKN035
     FM231100 20011KT P6SM BKN025
     FM231600 20011G20KT 5SM -SHRA OVC020=

USA.gov is the U.S. government's official web portal to all federal, state and local government web resources and services.